sensor_id;sensor_type;location;lat;lon;timestamp;P1;durP1;ratioP1;P2;durP2;ratioP2
72974;SDS011;61166;54.228;37.632;2023-07-29T00:02:14;341.65;;;127.05;;
72974;SDS011;61166;54.228;37.632;2023-07-29T00:04:40;283.13;;;112.10;;
72974;SDS011;61166;54.228;37.632;2023-07-29T00:07:07;290.48;;;115.30;;
72974;SDS011;61166;54.228;37.632;2023-07-29T00:09:33;304.37;;;117.67;;
72974;SDS011;61166;54.228;37.632;2023-07-29T00:12:00;322.63;;;121.78;;
72974;SDS011;61166;54.228;37.632;2023-07-29T00:14:26;314.80;;;120.07;;
72974;SDS011;61166;54.228;37.632;2023-07-29T00:16:53;337.25;;;125.80;;
72974;SDS011;61166;54.228;37.632;2023-07-29T00:19:19;319.95;;;121.75;;
72974;SDS011;61166;54.228;37.632;2023-07-29T00:21:46;295.93;;;116.30;;
72974;SDS011;61166;54.228;37.632;2023-07-29T00:24:12;345.55;;;127.88;;
72974;SDS011;61166;54.228;37.632;2023-07-29T00:26:39;361.45;;;130.88;;
72974;SDS011;61166;54.228;37.632;2023-07-29T00:29:05;354.70;;;130.13;;
72974;SDS011;61166;54.228;37.632;2023-07-29T00:31:32;362.35;;;132.32;;
72974;SDS011;61166;54.228;37.632;2023-07-29T00:33:59;338.77;;;126.83;;
72974;SDS011;61166;54.228;37.632;2023-07-29T00:36:26;332.20;;;125.45;;
72974;SDS011;61166;54.228;37.632;2023-07-29T00:38:52;333.73;;;124.90;;
72974;SDS011;61166;54.228;37.632;2023-07-29T00:41:19;352.08;;;129.77;;
72974;SDS011;61166;54.228;37.632;2023-07-29T00:43:48;325.33;;;124.13;;
72974;SDS011;61166;54.228;37.632;2023-07-29T00:46:15;365.47;;;133.23;;
72974;SDS011;61166;54.228;37.632;2023-07-29T00:48:43;386.63;;;138.60;;
72974;SDS011;61166;54.228;37.632;2023-07-29T00:51:09;360.15;;;132.50;;
72974;SDS011;61166;54.228;37.632;2023-07-29T00:53:36;339.63;;;127.72;;
72974;SDS011;61166;54.228;37.632;2023-07-29T00:56:03;330.67;;;125.57;;
72974;SDS011;61166;54.228;37.632;2023-07-29T00:58:29;352.03;;;130.10;;
72974;SDS011;61166;54.228;37.632;2023-07-29T01:00:56;316.95;;;122.93;;
72974;SDS011;61166;54.228;37.632;2023-07-29T01:03:23;343.70;;;127.95;;
72974;SDS011;61166;54.228;37.632;2023-07-29T01:06:01;381.55;;;136.35;;
72974;SDS011;61166;54.228;37.632;2023-07-29T01:08:48;392.70;;;138.43;;
72974;SDS011;61166;54.228;37.632;2023-07-29T01:13:58;368.13;;;133.40;;
72974;SDS011;61166;54.228;37.632;2023-07-29T01:16:28;358.95;;;130.77;;
72974;SDS011;61166;54.228;37.632;2023-07-29T01:18:57;406.38;;;142.57;;
72974;SDS011;61166;54.228;37.632;2023-07-29T01:21:31;396.00;;;139.30;;
72974;SDS011;61166;54.228;37.632;2023-07-29T01:23:58;365.93;;;133.53;;
72974;SDS011;61166;54.228;37.632;2023-07-29T01:26:25;344.08;;;128.13;;
72974;SDS011;61166;54.228;37.632;2023-07-29T01:28:51;336.38;;;126.10;;
72974;SDS011;61166;54.228;37.632;2023-07-29T01:31:30;331.80;;;125.03;;
72974;SDS011;61166;54.228;37.632;2023-07-29T01:34:13;331.55;;;124.50;;
72974;SDS011;61166;54.228;37.632;2023-07-29T01:36:49;351.20;;;130.33;;
72974;SDS011;61166;54.228;37.632;2023-07-29T01:39:17;353.50;;;129.95;;
72974;SDS011;61166;54.228;37.632;2023-07-29T01:41:45;380.73;;;135.75;;
72974;SDS011;61166;54.228;37.632;2023-07-29T01:44:12;429.25;;;147.07;;
72974;SDS011;61166;54.228;37.632;2023-07-29T01:46:38;416.25;;;143.55;;
72974;SDS011;61166;54.228;37.632;2023-07-29T01:49:05;428.30;;;147.63;;
72974;SDS011;61166;54.228;37.632;2023-07-29T01:51:31;321.42;;;122.13;;
72974;SDS011;61166;54.228;37.632;2023-07-29T01:53:58;290.75;;;115.47;;
72974;SDS011;61166;54.228;37.632;2023-07-29T01:56:24;341.23;;;126.15;;
72974;SDS011;61166;54.228;37.632;2023-07-29T01:58:50;345.08;;;128.27;;
72974;SDS011;61166;54.228;37.632;2023-07-29T02:01:17;340.83;;;127.57;;
72974;SDS011;61166;54.228;37.632;2023-07-29T02:03:43;359.58;;;131.57;;
72974;SDS011;61166;54.228;37.632;2023-07-29T02:06:10;361.52;;;131.90;;
72974;SDS011;61166;54.228;37.632;2023-07-29T02:08:37;338.30;;;127.80;;
72974;SDS011;61166;54.228;37.632;2023-07-29T02:11:04;282.88;;;113.93;;
72974;SDS011;61166;54.228;37.632;2023-07-29T02:13:30;272.90;;;110.83;;
72974;SDS011;61166;54.228;37.632;2023-07-29T02:15:57;280.42;;;113.13;;
72974;SDS011;61166;54.228;37.632;2023-07-29T02:18:23;299.23;;;117.40;;
72974;SDS011;61166;54.228;37.632;2023-07-29T02:20:50;287.80;;;114.68;;
72974;SDS011;61166;54.228;37.632;2023-07-29T02:23:18;352.88;;;130.30;;
72974;SDS011;61166;54.228;37.632;2023-07-29T02:25:44;344.67;;;129.23;;
72974;SDS011;61166;54.228;37.632;2023-07-29T02:28:11;283.73;;;114.18;;
72974;SDS011;61166;54.228;37.632;2023-07-29T02:30:40;344.17;;;128.55;;
72974;SDS011;61166;54.228;37.632;2023-07-29T02:33:08;298.15;;;117.80;;
72974;SDS011;61166;54.228;37.632;2023-07-29T02:35:35;272.85;;;110.32;;
72974;SDS011;61166;54.228;37.632;2023-07-29T02:38:01;263.53;;;108.13;;
72974;SDS011;61166;54.228;37.632;2023-07-29T02:40:28;288.80;;;114.63;;
72974;SDS011;61166;54.228;37.632;2023-07-29T02:42:55;290.75;;;115.13;;
72974;SDS011;61166;54.228;37.632;2023-07-29T02:45:21;303.35;;;118.57;;
72974;SDS011;61166;54.228;37.632;2023-07-29T02:47:48;283.98;;;113.68;;
72974;SDS011;61166;54.228;37.632;2023-07-29T02:50:15;361.47;;;132.17;;
72974;SDS011;61166;54.228;37.632;2023-07-29T02:52:41;267.77;;;109.43;;
72974;SDS011;61166;54.228;37.632;2023-07-29T02:55:08;253.68;;;106.18;;
72974;SDS011;61166;54.228;37.632;2023-07-29T02:57:34;282.33;;;113.70;;
72974;SDS011;61166;54.228;37.632;2023-07-29T03:00:01;299.38;;;117.72;;
72974;SDS011;61166;54.228;37.632;2023-07-29T03:02:28;282.53;;;114.00;;
72974;SDS011;61166;54.228;37.632;2023-07-29T03:04:57;280.05;;;113.18;;
72974;SDS011;61166;54.228;37.632;2023-07-29T03:07:24;278.30;;;112.90;;
72974;SDS011;61166;54.228;37.632;2023-07-29T03:09:50;235.93;;;102.72;;
72974;SDS011;61166;54.228;37.632;2023-07-29T03:12:17;260.55;;;108.40;;
72974;SDS011;61166;54.228;37.632;2023-07-29T03:14:47;255.60;;;106.93;;
72974;SDS011;61166;54.228;37.632;2023-07-29T03:17:14;262.05;;;108.43;;
72974;SDS011;61166;54.228;37.632;2023-07-29T03:19:41;262.90;;;108.50;;
72974;SDS011;61166;54.228;37.632;2023-07-29T03:22:07;269.92;;;110.20;;
72974;SDS011;61166;54.228;37.632;2023-07-29T03:24:34;244.00;;;103.85;;
72974;SDS011;61166;54.228;37.632;2023-07-29T03:27:00;215.97;;;97.00;;
72974;SDS011;61166;54.228;37.632;2023-07-29T03:29:27;217.90;;;96.75;;
72974;SDS011;61166;54.228;37.632;2023-07-29T03:31:56;267.17;;;110.28;;
72974;SDS011;61166;54.228;37.632;2023-07-29T03:34:23;309.23;;;121.85;;
72974;SDS011;61166;54.228;37.632;2023-07-29T03:36:49;262.02;;;109.50;;
72974;SDS011;61166;54.228;37.632;2023-07-29T03:39:16;221.33;;;98.80;;
72974;SDS011;61166;54.228;37.632;2023-07-29T03:41:43;195.57;;;91.85;;
72974;SDS011;61166;54.228;37.632;2023-07-29T03:44:09;203.32;;;94.30;;
72974;SDS011;61166;54.228;37.632;2023-07-29T03:46:36;228.32;;;100.78;;
72974;SDS011;61166;54.228;37.632;2023-07-29T03:49:03;190.00;;;90.07;;
72974;SDS011;61166;54.228;37.632;2023-07-29T03:51:31;184.63;;;88.27;;
72974;SDS011;61166;54.228;37.632;2023-07-29T03:53:57;211.35;;;96.65;;
72974;SDS011;61166;54.228;37.632;2023-07-29T03:56:23;209.57;;;96.07;;
72974;SDS011;61166;54.228;37.632;2023-07-29T03:58:50;223.90;;;100.18;;
72974;SDS011;61166;54.228;37.632;2023-07-29T04:01:17;235.27;;;102.65;;
72974;SDS011;61166;54.228;37.632;2023-07-29T04:03:44;271.33;;;111.40;;
72974;SDS011;61166;54.228;37.632;2023-07-29T04:06:11;270.25;;;111.97;;
72974;SDS011;61166;54.228;37.632;2023-07-29T04:08:37;225.20;;;100.57;;
72974;SDS011;61166;54.228;37.632;2023-07-29T04:11:04;212.48;;;98.45;;
72974;SDS011;61166;54.228;37.632;2023-07-29T04:13:32;214.73;;;97.60;;
72974;SDS011;61166;54.228;37.632;2023-07-29T04:15:59;211.97;;;96.93;;
72974;SDS011;61166;54.228;37.632;2023-07-29T04:18:25;217.82;;;97.65;;
72974;SDS011;61166;54.228;37.632;2023-07-29T04:20:52;169.02;;;83.60;;
72974;SDS011;61166;54.228;37.632;2023-07-29T04:23:18;205.68;;;94.93;;
72974;SDS011;61166;54.228;37.632;2023-07-29T04:25:44;205.88;;;95.22;;
72974;SDS011;61166;54.228;37.632;2023-07-29T04:28:11;224.67;;;99.30;;
72974;SDS011;61166;54.228;37.632;2023-07-29T04:30:37;207.02;;;95.28;;
72974;SDS011;61166;54.228;37.632;2023-07-29T04:33:04;195.52;;;92.38;;
72974;SDS011;61166;54.228;37.632;2023-07-29T04:35:30;178.57;;;86.43;;
72974;SDS011;61166;54.228;37.632;2023-07-29T04:37:57;148.00;;;78.15;;
72974;SDS011;61166;54.228;37.632;2023-07-29T04:40:23;153.97;;;79.47;;
72974;SDS011;61166;54.228;37.632;2023-07-29T04:42:50;136.82;;;74.80;;
72974;SDS011;61166;54.228;37.632;2023-07-29T04:45:17;130.43;;;72.13;;
72974;SDS011;61166;54.228;37.632;2023-07-29T04:47:43;131.18;;;72.35;;
72974;SDS011;61166;54.228;37.632;2023-07-29T04:50:10;142.30;;;76.57;;
72974;SDS011;61166;54.228;37.632;2023-07-29T04:52:36;138.17;;;75.50;;
72974;SDS011;61166;54.228;37.632;2023-07-29T04:55:04;181.40;;;87.40;;
72974;SDS011;61166;54.228;37.632;2023-07-29T04:57:31;164.88;;;83.07;;
72974;SDS011;61166;54.228;37.632;2023-07-29T04:59:57;125.82;;;69.80;;
72974;SDS011;61166;54.228;37.632;2023-07-29T05:02:24;147.57;;;77.60;;
72974;SDS011;61166;54.228;37.632;2023-07-29T05:04:50;153.67;;;79.43;;
72974;SDS011;61166;54.228;37.632;2023-07-29T05:07:17;145.10;;;76.82;;
72974;SDS011;61166;54.228;37.632;2023-07-29T05:09:43;160.25;;;81.43;;
72974;SDS011;61166;54.228;37.632;2023-07-29T05:12:10;122.15;;;69.75;;
72974;SDS011;61166;54.228;37.632;2023-07-29T05:14:36;114.53;;;66.88;;
72974;SDS011;61166;54.228;37.632;2023-07-29T05:17:03;135.37;;;73.70;;
72974;SDS011;61166;54.228;37.632;2023-07-29T05:19:29;162.68;;;81.82;;
72974;SDS011;61166;54.228;37.632;2023-07-29T05:21:56;136.80;;;74.80;;
72974;SDS011;61166;54.228;37.632;2023-07-29T05:24:23;118.65;;;67.82;;
72974;SDS011;61166;54.228;37.632;2023-07-29T05:26:49;107.53;;;64.30;;
72974;SDS011;61166;54.228;37.632;2023-07-29T05:29:15;105.30;;;63.07;;
72974;SDS011;61166;54.228;37.632;2023-07-29T05:31:42;127.47;;;71.82;;
72974;SDS011;61166;54.228;37.632;2023-07-29T05:34:09;119.03;;;68.30;;
72974;SDS011;61166;54.228;37.632;2023-07-29T05:36:36;105.20;;;63.85;;
72974;SDS011;61166;54.228;37.632;2023-07-29T05:39:03;141.18;;;76.00;;
72974;SDS011;61166;54.228;37.632;2023-07-29T05:41:31;128.03;;;71.00;;
72974;SDS011;61166;54.228;37.632;2023-07-29T05:43:57;114.00;;;66.95;;
72974;SDS011;61166;54.228;37.632;2023-07-29T05:46:24;137.82;;;74.47;;
72974;SDS011;61166;54.228;37.632;2023-07-29T05:48:53;99.65;;;61.70;;
72974;SDS011;61166;54.228;37.632;2023-07-29T05:51:20;116.38;;;67.72;;
72974;SDS011;61166;54.228;37.632;2023-07-29T05:53:47;101.50;;;61.83;;
72974;SDS011;61166;54.228;37.632;2023-07-29T05:56:14;102.03;;;63.15;;
72974;SDS011;61166;54.228;37.632;2023-07-29T05:58:40;197.75;;;92.93;;
72974;SDS011;61166;54.228;37.632;2023-07-29T06:01:07;122.75;;;69.28;;
72974;SDS011;61166;54.228;37.632;2023-07-29T06:03:33;131.48;;;71.65;;
72974;SDS011;61166;54.228;37.632;2023-07-29T06:06:00;123.37;;;67.83;;
72974;SDS011;61166;54.228;37.632;2023-07-29T06:08:26;152.98;;;79.35;;
72974;SDS011;61166;54.228;37.632;2023-07-29T06:10:53;153.57;;;79.35;;
72974;SDS011;61166;54.228;37.632;2023-07-29T06:13:20;136.05;;;74.00;;
72974;SDS011;61166;54.228;37.632;2023-07-29T06:15:46;195.63;;;90.45;;
72974;SDS011;61166;54.228;37.632;2023-07-29T06:18:13;158.40;;;81.27;;
72974;SDS011;61166;54.228;37.632;2023-07-29T06:20:39;329.08;;;124.55;;
72974;SDS011;61166;54.228;37.632;2023-07-29T06:23:06;308.40;;;120.47;;
72974;SDS011;61166;54.228;37.632;2023-07-29T06:25:34;278.92;;;112.60;;
72974;SDS011;61166;54.228;37.632;2023-07-29T06:28:00;283.48;;;113.85;;
72974;SDS011;61166;54.228;37.632;2023-07-29T06:30:27;275.77;;;111.93;;
72974;SDS011;61166;54.228;37.632;2023-07-29T06:32:54;276.17;;;112.22;;
72974;SDS011;61166;54.228;37.632;2023-07-29T06:35:20;256.63;;;108.05;;
72974;SDS011;61166;54.228;37.632;2023-07-29T06:37:46;278.67;;;113.05;;
72974;SDS011;61166;54.228;37.632;2023-07-29T06:40:13;258.38;;;107.75;;
72974;SDS011;61166;54.228;37.632;2023-07-29T06:42:40;270.23;;;110.27;;
72974;SDS011;61166;54.228;37.632;2023-07-29T06:45:06;301.27;;;117.97;;
72974;SDS011;61166;54.228;37.632;2023-07-29T06:47:33;277.15;;;112.78;;
72974;SDS011;61166;54.228;37.632;2023-07-29T06:50:00;275.65;;;112.13;;
72974;SDS011;61166;54.228;37.632;2023-07-29T06:52:26;292.95;;;116.07;;
72974;SDS011;61166;54.228;37.632;2023-07-29T06:54:53;313.50;;;121.33;;
72974;SDS011;61166;54.228;37.632;2023-07-29T06:57:19;302.83;;;118.75;;
72974;SDS011;61166;54.228;37.632;2023-07-29T06:59:46;287.17;;;114.40;;
72974;SDS011;61166;54.228;37.632;2023-07-29T07:02:12;297.20;;;118.07;;
72974;SDS011;61166;54.228;37.632;2023-07-29T07:04:39;274.15;;;111.38;;
72974;SDS011;61166;54.228;37.632;2023-07-29T07:07:05;292.07;;;115.43;;
72974;SDS011;61166;54.228;37.632;2023-07-29T07:09:32;304.45;;;119.20;;
72974;SDS011;61166;54.228;37.632;2023-07-29T07:11:58;288.15;;;115.07;;
72974;SDS011;61166;54.228;37.632;2023-07-29T07:14:25;270.20;;;110.20;;
72974;SDS011;61166;54.228;37.632;2023-07-29T07:16:51;291.67;;;115.75;;
72974;SDS011;61166;54.228;37.632;2023-07-29T07:19:18;268.00;;;109.37;;
72974;SDS011;61166;54.228;37.632;2023-07-29T07:21:44;278.58;;;112.97;;
72974;SDS011;61166;54.228;37.632;2023-07-29T07:24:11;281.33;;;113.93;;
72974;SDS011;61166;54.228;37.632;2023-07-29T07:26:37;281.05;;;112.45;;
72974;SDS011;61166;54.228;37.632;2023-07-29T07:29:05;254.82;;;106.70;;
72974;SDS011;61166;54.228;37.632;2023-07-29T07:31:32;277.73;;;111.97;;
72974;SDS011;61166;54.228;37.632;2023-07-29T07:33:59;264.92;;;109.40;;
72974;SDS011;61166;54.228;37.632;2023-07-29T07:36:26;264.33;;;108.82;;
72974;SDS011;61166;54.228;37.632;2023-07-29T07:38:52;283.83;;;113.40;;
72974;SDS011;61166;54.228;37.632;2023-07-29T07:41:19;302.10;;;118.28;;
72974;SDS011;61166;54.228;37.632;2023-07-29T07:43:45;278.03;;;112.53;;
72974;SDS011;61166;54.228;37.632;2023-07-29T07:46:11;317.95;;;122.35;;
72974;SDS011;61166;54.228;37.632;2023-07-29T07:48:38;315.90;;;121.78;;
72974;SDS011;61166;54.228;37.632;2023-07-29T07:51:11;300.38;;;118.13;;
72974;SDS011;61166;54.228;37.632;2023-07-29T07:53:37;293.98;;;115.25;;
72974;SDS011;61166;54.228;37.632;2023-07-29T07:56:04;347.00;;;129.13;;
72974;SDS011;61166;54.228;37.632;2023-07-29T07:58:30;306.85;;;119.32;;
72974;SDS011;61166;54.228;37.632;2023-07-29T08:01:03;296.60;;;117.00;;
72974;SDS011;61166;54.228;37.632;2023-07-29T08:03:30;266.70;;;109.22;;
72974;SDS011;61166;54.228;37.632;2023-07-29T08:05:57;259.20;;;107.53;;
72974;SDS011;61166;54.228;37.632;2023-07-29T08:08:23;287.17;;;115.03;;
72974;SDS011;61166;54.228;37.632;2023-07-29T08:10:49;268.90;;;110.00;;
72974;SDS011;61166;54.228;37.632;2023-07-29T08:13:16;274.77;;;112.03;;
72974;SDS011;61166;54.228;37.632;2023-07-29T08:15:45;271.48;;;110.43;;
72974;SDS011;61166;54.228;37.632;2023-07-29T08:18:12;275.15;;;111.00;;
72974;SDS011;61166;54.228;37.632;2023-07-29T08:20:39;290.13;;;114.80;;
72974;SDS011;61166;54.228;37.632;2023-07-29T08:23:05;290.35;;;115.70;;
72974;SDS011;61166;54.228;37.632;2023-07-29T08:25:31;292.73;;;115.22;;
72974;SDS011;61166;54.228;37.632;2023-07-29T08:27:58;305.70;;;118.75;;
72974;SDS011;61166;54.228;37.632;2023-07-29T08:30:25;301.40;;;117.55;;
72974;SDS011;61166;54.228;37.632;2023-07-29T08:32:51;261.53;;;107.33;;
72974;SDS011;61166;54.228;37.632;2023-07-29T08:35:18;296.67;;;116.85;;
72974;SDS011;61166;54.228;37.632;2023-07-29T08:37:44;273.38;;;111.40;;
72974;SDS011;61166;54.228;37.632;2023-07-29T08:40:11;274.38;;;111.22;;
72974;SDS011;61166;54.228;37.632;2023-07-29T08:42:37;281.73;;;112.88;;
72974;SDS011;61166;54.228;37.632;2023-07-29T08:45:07;313.00;;;120.33;;
72974;SDS011;61166;54.228;37.632;2023-07-29T08:47:34;307.80;;;119.53;;
72974;SDS011;61166;54.228;37.632;2023-07-29T08:50:01;304.95;;;118.80;;
72974;SDS011;61166;54.228;37.632;2023-07-29T08:52:27;306.00;;;119.25;;
72974;SDS011;61166;54.228;37.632;2023-07-29T08:54:55;317.90;;;121.25;;
72974;SDS011;61166;54.228;37.632;2023-07-29T08:57:22;306.60;;;119.00;;
72974;SDS011;61166;54.228;37.632;2023-07-29T08:59:49;299.85;;;117.57;;
72974;SDS011;61166;54.228;37.632;2023-07-29T09:02:16;301.77;;;117.68;;
72974;SDS011;61166;54.228;37.632;2023-07-29T09:04:44;294.90;;;116.13;;
72974;SDS011;61166;54.228;37.632;2023-07-29T09:07:10;278.00;;;111.68;;
72974;SDS011;61166;54.228;37.632;2023-07-29T09:09:37;299.00;;;116.87;;
72974;SDS011;61166;54.228;37.632;2023-07-29T09:12:03;292.05;;;115.63;;
72974;SDS011;61166;54.228;37.632;2023-07-29T09:14:30;284.60;;;113.72;;
72974;SDS011;61166;54.228;37.632;2023-07-29T09:16:56;295.55;;;116.13;;
72974;SDS011;61166;54.228;37.632;2023-07-29T09:19:26;288.35;;;114.72;;
72974;SDS011;61166;54.228;37.632;2023-07-29T09:21:52;300.10;;;117.83;;
72974;SDS011;61166;54.228;37.632;2023-07-29T09:24:19;297.70;;;117.55;;
72974;SDS011;61166;54.228;37.632;2023-07-29T09:26:50;284.70;;;114.43;;
72974;SDS011;61166;54.228;37.632;2023-07-29T09:29:20;286.67;;;115.10;;
72974;SDS011;61166;54.228;37.632;2023-07-29T09:31:48;320.13;;;122.70;;
72974;SDS011;61166;54.228;37.632;2023-07-29T09:34:14;323.93;;;122.63;;
72974;SDS011;61166;54.228;37.632;2023-07-29T09:36:41;323.67;;;122.97;;
72974;SDS011;61166;54.228;37.632;2023-07-29T09:39:10;311.88;;;121.10;;
72974;SDS011;61166;54.228;37.632;2023-07-29T09:41:37;297.73;;;116.90;;
72974;SDS011;61166;54.228;37.632;2023-07-29T09:44:03;298.05;;;116.88;;
72974;SDS011;61166;54.228;37.632;2023-07-29T09:46:36;295.57;;;117.07;;
72974;SDS011;61166;54.228;37.632;2023-07-29T09:49:04;289.38;;;115.45;;
72974;SDS011;61166;54.228;37.632;2023-07-29T09:51:31;309.25;;;120.55;;
72974;SDS011;61166;54.228;37.632;2023-07-29T09:53:57;292.20;;;115.80;;
72974;SDS011;61166;54.228;37.632;2023-07-29T09:56:28;272.02;;;111.30;;
72974;SDS011;61166;54.228;37.632;2023-07-29T09:58:55;284.33;;;113.70;;
72974;SDS011;61166;54.228;37.632;2023-07-29T10:01:22;277.55;;;111.82;;
72974;SDS011;61166;54.228;37.632;2023-07-29T10:03:49;312.27;;;120.55;;
72974;SDS011;61166;54.228;37.632;2023-07-29T10:06:16;282.40;;;113.43;;
72974;SDS011;61166;54.228;37.632;2023-07-29T10:08:43;282.48;;;114.07;;
72974;SDS011;61166;54.228;37.632;2023-07-29T10:11:10;286.13;;;114.13;;
72974;SDS011;61166;54.228;37.632;2023-07-29T10:13:37;273.00;;;111.15;;
72974;SDS011;61166;54.228;37.632;2023-07-29T10:16:04;291.30;;;115.65;;
72974;SDS011;61166;54.228;37.632;2023-07-29T10:18:30;275.40;;;110.85;;
72974;SDS011;61166;54.228;37.632;2023-07-29T10:20:58;272.85;;;110.97;;
72974;SDS011;61166;54.228;37.632;2023-07-29T10:23:27;271.87;;;110.77;;
72974;SDS011;61166;54.228;37.632;2023-07-29T10:28:26;287.13;;;114.43;;
72974;SDS011;61166;54.228;37.632;2023-07-29T10:30:52;297.75;;;116.13;;
72974;SDS011;61166;54.228;37.632;2023-07-29T10:33:19;295.55;;;115.57;;
72974;SDS011;61166;54.228;37.632;2023-07-29T10:35:46;309.33;;;119.10;;
72974;SDS011;61166;54.228;37.632;2023-07-29T10:38:12;312.20;;;119.90;;
72974;SDS011;61166;54.228;37.632;2023-07-29T10:40:46;294.50;;;116.50;;
72974;SDS011;61166;54.228;37.632;2023-07-29T10:43:18;302.95;;;118.55;;
72974;SDS011;61166;54.228;37.632;2023-07-29T10:46:14;327.92;;;123.35;;
72974;SDS011;61166;54.228;37.632;2023-07-29T10:48:42;334.97;;;125.20;;
72974;SDS011;61166;54.228;37.632;2023-07-29T10:53:47;311.98;;;119.43;;
72974;SDS011;61166;54.228;37.632;2023-07-29T10:56:16;318.70;;;121.63;;
72974;SDS011;61166;54.228;37.632;2023-07-29T10:58:50;335.90;;;125.68;;
72974;SDS011;61166;54.228;37.632;2023-07-29T11:01:30;321.20;;;121.50;;
72974;SDS011;61166;54.228;37.632;2023-07-29T11:04:00;328.77;;;123.47;;
72974;SDS011;61166;54.228;37.632;2023-07-29T11:06:27;303.75;;;118.53;;
72974;SDS011;61166;54.228;37.632;2023-07-29T11:08:53;330.48;;;123.45;;
72974;SDS011;61166;54.228;37.632;2023-07-29T11:11:20;337.45;;;126.60;;
72974;SDS011;61166;54.228;37.632;2023-07-29T11:13:46;361.43;;;131.00;;
72974;SDS011;61166;54.228;37.632;2023-07-29T11:16:13;357.65;;;130.27;;
72974;SDS011;61166;54.228;37.632;2023-07-29T11:18:42;364.13;;;131.50;;
72974;SDS011;61166;54.228;37.632;2023-07-29T11:21:10;346.27;;;128.65;;
72974;SDS011;61166;54.228;37.632;2023-07-29T11:23:37;332.75;;;124.90;;
72974;SDS011;61166;54.228;37.632;2023-07-29T11:26:04;365.20;;;132.30;;
72974;SDS011;61166;54.228;37.632;2023-07-29T11:28:31;402.83;;;141.63;;
72974;SDS011;61166;54.228;37.632;2023-07-29T11:31:03;350.20;;;129.65;;
72974;SDS011;61166;54.228;37.632;2023-07-29T11:33:30;362.48;;;132.55;;
72974;SDS011;61166;54.228;37.632;2023-07-29T11:35:57;424.63;;;150.43;;
72974;SDS011;61166;54.228;37.632;2023-07-29T11:38:23;382.77;;;137.17;;
72974;SDS011;61166;54.228;37.632;2023-07-29T11:40:56;348.58;;;129.35;;
72974;SDS011;61166;54.228;37.632;2023-07-29T11:43:22;371.27;;;134.73;;
72974;SDS011;61166;54.228;37.632;2023-07-29T11:45:49;371.08;;;134.25;;
72974;SDS011;61166;54.228;37.632;2023-07-29T11:48:18;374.40;;;135.25;;
72974;SDS011;61166;54.228;37.632;2023-07-29T11:50:45;357.67;;;131.60;;
72974;SDS011;61166;54.228;37.632;2023-07-29T11:53:11;356.13;;;130.95;;
72974;SDS011;61166;54.228;37.632;2023-07-29T11:55:40;342.65;;;127.72;;
72974;SDS011;61166;54.228;37.632;2023-07-29T11:58:07;355.83;;;130.75;;
72974;SDS011;61166;54.228;37.632;2023-07-29T12:00:33;334.70;;;125.43;;
72974;SDS011;61166;54.228;37.632;2023-07-29T12:03:00;369.10;;;134.40;;
72974;SDS011;61166;54.228;37.632;2023-07-29T12:05:27;345.08;;;127.97;;
72974;SDS011;61166;54.228;37.632;2023-07-29T12:07:53;326.48;;;124.30;;
72974;SDS011;61166;54.228;37.632;2023-07-29T12:10:20;334.58;;;126.18;;
72974;SDS011;61166;54.228;37.632;2023-07-29T12:12:47;329.58;;;123.97;;
72974;SDS011;61166;54.228;37.632;2023-07-29T12:15:13;380.50;;;136.57;;
72974;SDS011;61166;54.228;37.632;2023-07-29T12:17:40;356.52;;;130.75;;
72974;SDS011;61166;54.228;37.632;2023-07-29T12:20:08;360.52;;;131.95;;
72974;SDS011;61166;54.228;37.632;2023-07-29T12:22:35;367.13;;;132.80;;
72974;SDS011;61166;54.228;37.632;2023-07-29T12:25:02;347.80;;;128.57;;
72974;SDS011;61166;54.228;37.632;2023-07-29T12:27:29;354.67;;;130.17;;
72974;SDS011;61166;54.228;37.632;2023-07-29T12:29:56;337.80;;;127.13;;
72974;SDS011;61166;54.228;37.632;2023-07-29T12:32:24;377.77;;;136.02;;
72974;SDS011;61166;54.228;37.632;2023-07-29T12:34:52;314.90;;;120.85;;
72974;SDS011;61166;54.228;37.632;2023-07-29T12:37:20;337.42;;;125.97;;
72974;SDS011;61166;54.228;37.632;2023-07-29T12:39:56;352.63;;;129.67;;
72974;SDS011;61166;54.228;37.632;2023-07-29T12:42:23;352.50;;;129.85;;
72974;SDS011;61166;54.228;37.632;2023-07-29T12:44:49;337.52;;;126.82;;
72974;SDS011;61166;54.228;37.632;2023-07-29T12:47:16;364.45;;;133.00;;
72974;SDS011;61166;54.228;37.632;2023-07-29T12:49:42;383.15;;;137.23;;
72974;SDS011;61166;54.228;37.632;2023-07-29T12:52:08;367.00;;;132.97;;
72974;SDS011;61166;54.228;37.632;2023-07-29T12:54:35;381.52;;;136.38;;
72974;SDS011;61166;54.228;37.632;2023-07-29T12:57:01;405.27;;;142.05;;
72974;SDS011;61166;54.228;37.632;2023-07-29T12:59:28;368.63;;;133.07;;
72974;SDS011;61166;54.228;37.632;2023-07-29T13:01:54;385.67;;;136.85;;
72974;SDS011;61166;54.228;37.632;2023-07-29T13:04:21;357.80;;;131.27;;
72974;SDS011;61166;54.228;37.632;2023-07-29T13:06:48;353.98;;;129.55;;
72974;SDS011;61166;54.228;37.632;2023-07-29T13:09:14;359.13;;;131.70;;
72974;SDS011;61166;54.228;37.632;2023-07-29T13:11:40;383.80;;;136.65;;
72974;SDS011;61166;54.228;37.632;2023-07-29T13:14:07;370.58;;;133.77;;
72974;SDS011;61166;54.228;37.632;2023-07-29T13:16:33;353.57;;;130.00;;
72974;SDS011;61166;54.228;37.632;2023-07-29T13:19:01;325.73;;;124.07;;
72974;SDS011;61166;54.228;37.632;2023-07-29T13:21:27;330.13;;;124.80;;
72974;SDS011;61166;54.228;37.632;2023-07-29T13:23:53;360.40;;;131.90;;
72974;SDS011;61166;54.228;37.632;2023-07-29T13:26:20;358.50;;;131.73;;
72974;SDS011;61166;54.228;37.632;2023-07-29T13:28:47;327.97;;;124.83;;
72974;SDS011;61166;54.228;37.632;2023-07-29T13:31:13;335.88;;;125.95;;
72974;SDS011;61166;54.228;37.632;2023-07-29T13:33:40;359.15;;;131.60;;
72974;SDS011;61166;54.228;37.632;2023-07-29T13:36:06;337.33;;;125.63;;
72974;SDS011;61166;54.228;37.632;2023-07-29T13:38:32;307.63;;;119.45;;
72974;SDS011;61166;54.228;37.632;2023-07-29T13:41:00;317.13;;;122.03;;
72974;SDS011;61166;54.228;37.632;2023-07-29T13:43:26;306.95;;;119.43;;
72974;SDS011;61166;54.228;37.632;2023-07-29T13:45:53;319.92;;;122.75;;
72974;SDS011;61166;54.228;37.632;2023-07-29T13:48:19;335.95;;;126.38;;
72974;SDS011;61166;54.228;37.632;2023-07-29T13:50:46;349.73;;;129.52;;
72974;SDS011;61166;54.228;37.632;2023-07-29T13:53:12;348.00;;;129.50;;
72974;SDS011;61166;54.228;37.632;2023-07-29T13:55:39;344.10;;;128.20;;